Dati Storici

Data ora Umidita' aria (%) Temperatura aria (°C) Rad globale (W/m²) Gonioanemometro (°) Tacoanemometro (m/s) Pioggia (mm)
03-09-2012 05:10 68.3 % 21.06 2.008 50.504 0.902 14
03-09-2012 05:00 68.5 % 21.061 1.854 60.401 3.288 14
03-09-2012 04:50 69 % 20.907 1.636 36.027 3.9 14
03-09-2012 04:40 69.4 % 20.927 1.495 6.658 3.449 14
03-09-2012 04:30 70.1 % 20.855 1.687 30.514 2.883 14
03-09-2012 04:20 70.7 % 20.715 1.591 19.531 2.248 14
03-09-2012 04:10 71 % 20.731 1.449 14.919 1.865 14
03-09-2012 04:00 71.8 % 20.664 1.423 17.831 2.262 14
03-09-2012 03:50 72.6 % 20.559 1.578 32.64 2.733 14
03-09-2012 03:40 73 % 20.588 1.193 75.348 1.432 14
03-09-2012 03:30 73.2 % 20.649 1.257 39.168 2.659 14
03-09-2012 03:20 73.7 % 20.667 1.808 14.81 2.606 14
03-09-2012 03:10 73.8 % 20.677 1.752 15.663 3.258 14
03-09-2012 03:00 73.4 % 20.724 1.648 8.294 1.755 14
03-09-2012 02:50 73.1 % 20.901 1.404 9.426 1.711 14
03-09-2012 02:40 72.8 % 21.043 1.122 2.075 3.123 14
03-09-2012 02:30 72.9 % 21.023 0.879 39.704 1.934 14
03-09-2012 02:20 73.1 % 21.104 1.199 358.673 0.683 14
03-09-2012 02:10 73.4 % 21.076 0.834 24.618 2.428 14
03-09-2012 02:00 74.1 % 21.002 0.757 16.737 3.474 14

I dati sono presentati in modo automatico a scopo informativo. In seguito a verifica i dati possono subire modifiche o essere invalidati e non riportati negli archivi definitivi.